Voidomatis — A8FX2 — position and weather

sailwx.info

Track history (hours):
 
Tides and Currents Weather Stations Pressure Air Temp Water Temp Dewpoint Dewpoint Depression Visibility Wind Speed Wind Dir Waves Ship Positions

Voidomatis

Last reported at 2017-Jun-02 18:17 UTC. Time now 2017-Jun-23 23:57 UTC.
Position S 23°02' W 043°07'.
Warning: this ship's position is 21 days out of date.

Length 214 m; draft 12.1 m.

Type: Tanker. MMSI: 636012508.

Date/timePositionNaut miles runAvg speedWind from/ knotsBaromVisibWave heightAir tempDewpointWater temp
2017-Jun-02 18:17S 23°02' W 043°07'310.1
2017-Jun-02 18:00S 22°60' W 043°09'4 7.7
2017-Jun-02 17:30S 22°56' W 043°08'3 1.9
2017-Jun-02 16:07S 22°53' W 043°09'0 0.1
2017-Jun-02 15:49S 22°53' W 043°09'0 0.1
2017-Jun-02 15:19S 22°53' W 043°09'0 0.1
2017-Jun-02 13:07S 22°53' W 043°09'0 0.2
2017-Jun-02 12:19S 22°53' W 043°09'0 0.2
2017-Jun-02 11:49S 22°53' W 043°09'0 0.0
2017-Jun-02 10:31S 22°53' W 043°09'0 0.0
2017-Jun-02 10:01S 22°53' W 043°09'0 0.1
2017-Jun-02 09:49S 22°53' W 043°09'0 0.0
2017-Jun-02 09:25S 22°53' W 043°09'0 0.1
2017-Jun-02 08:49S 22°53' W 043°09'0 0.4
2017-Jun-02 08:25S 22°53' W 043°09'0 0.1
2017-Jun-02 07:55S 22°53' W 043°09'0 0.0
2017-Jun-02 07:25S 22°53' W 043°09'0 0.1
2017-Jun-02 06:55S 22°54' W 043°09'0 0.0
2017-Jun-02 06:25S 22°54' W 043°09'0 0.0
2017-Jun-02 05:55S 22°54' W 043°09'0 0.0
2017-Jun-02 05:25S 22°54' W 043°09'0 0.2
2017-Jun-02 04:55S 22°53' W 043°09'0 0.3
2017-Jun-02 04:25S 22°53' W 043°09'0 0.1
2017-Jun-02 03:43S 22°53' W 043°09'0 0.1
2017-Jun-02 03:25S 22°53' W 043°09'0 0.1
2017-Jun-02 02:55S 22°53' W 043°09'0 0.1
2017-Jun-02 01:49S 22°53' W 043°09'0 0.0
2017-Jun-02 01:01S 22°53' W 043°09'0 0.1
2017-Jun-02 00:43S 22°54' W 043°09'0 0.2
2017-Jun-02 00:19S 22°53' W 043°09'0 0.3
2017-Jun-01 23:49S 22°53' W 043°09'0 0.1
2017-Jun-01 23:25S 22°53' W 043°09'0 0.0
2017-Jun-01 22:01S 22°53' W 043°09'0 0.1
2017-Jun-01 21:49S 22°53' W 043°09'0 0.0
2017-Jun-01 21:13S 22°53' W 043°09'0 0.1
2017-Jun-01 20:55S 22°53' W 043°09'0 0.0
2017-Jun-01 20:19S 22°53' W 043°09'0 0.1
2017-Jun-01 19:55S 22°53' W 043°09'0 0.3
2017-Jun-01 19:23S 22°53' W 043°09'0 0.4
2017-Jun-01 19:00S 22°54' W 043°09'3 5.6
2017-Jun-01 18:30S 22°56' W 043°08'4 6.7
2017-Jun-01 17:57S 23°00' W 043°09'3 6.7
2017-Jun-01 17:30S 23°03' W 043°07'1 0.1
2017-Jun-01 13:39S 23°03' W 043°07'0 2.4
2017-Jun-01 13:30S 23°03' W 043°06'2 4.9
2017-Jun-01 13:00S 23°01' W 043°06'3 5.6
2017-Jun-01 12:30S 23°01' W 043°03'510.0
2017-Jun-01 12:00S 23°03' W 042°58'  
2017-May-29 14:56S 23°05' W 042°45'1213.2
2017-May-29 14:00S 23°04' W 042°58'612.1
2017-May-29 13:30S 23°03' W 043°04'611.4
2017-May-29 13:00S 22°58' W 043°08'5 9.4
2017-May-29 12:30S 22°53' W 043°09'0 0.0
2017-May-28 22:30S 22°53' W 043°09'0 0.0
2017-May-28 21:48S 22°53' W 043°09'0 0.1
2017-May-28 20:36S 22°53' W 043°09'0 0.1
2017-May-28 20:30S 22°53' W 043°09'0 0.0
2017-May-28 19:54S 22°53' W 043°09'0 0.0
2017-May-28 19:30S 22°53' W 043°09'0 0.0
2017-May-28 18:48S 22°53' W 043°09'0 0.0
2017-May-28 18:24S 22°53' W 043°09'0 0.0
2017-May-28 17:42S 22°53' W 043°09'0 0.0
2017-May-28 16:30S 22°53' W 043°09'0 0.0
2017-May-28 16:00S 22°53' W 043°09'0 0.0
2017-May-28 15:30S 22°53' W 043°09'0 0.4
2017-May-28 15:00S 22°53' W 043°09'0 0.2
2017-May-28 14:00S 22°54' W 043°09'0 0.0
2017-May-28 13:30S 22°54' W 043°09'0 0.1
2017-May-28 13:00S 22°53' W 043°09'0 0.1
2017-May-28 12:24S 22°54' W 043°09'0 0.2
2017-May-28 12:00S 22°53' W 043°09'3 5.3
2017-May-28 11:30S 22°56' W 043°08'5 9.9
2017-May-28 11:00S 23°01' W 043°07'4 7.5
2017-May-28 10:30S 23°05' W 043°07'  
Track history (hours):
 
Tides and Currents Weather Stations Pressure Air Temp Water Temp Dewpoint Dewpoint Depression Visibility Wind Speed Wind Dir Waves Ship Positions

Voidomatis

Last reported at 2017-Jun-02 18:17 UTC. Time now 2017-Jun-23 23:57 UTC.
Position S 23°02' W 043°07'.
Warning: this ship's position is 21 days out of date.

Length 214 m; draft 12.1 m.

Type: Tanker. MMSI: 636012508.

Date/timePositionNaut miles runAvg speedWind from/ knotsBaromVisibWave heightAir tempDewpointWater temp
2017-Jun-02 18:17S 23°02' W 043°07'310.1
2017-Jun-02 18:00S 22°60' W 043°09'4 7.7
2017-Jun-02 17:30S 22°56' W 043°08'3 1.9
2017-Jun-02 16:07S 22°53' W 043°09'0 0.1
2017-Jun-02 15:49S 22°53' W 043°09'0 0.1
2017-Jun-02 15:19S 22°53' W 043°09'0 0.1
2017-Jun-02 13:07S 22°53' W 043°09'0 0.2
2017-Jun-02 12:19S 22°53' W 043°09'0 0.2
2017-Jun-02 11:49S 22°53' W 043°09'0 0.0
2017-Jun-02 10:31S 22°53' W 043°09'0 0.0
2017-Jun-02 10:01S 22°53' W 043°09'0 0.1
2017-Jun-02 09:49S 22°53' W 043°09'0 0.0
2017-Jun-02 09:25S 22°53' W 043°09'0 0.1
2017-Jun-02 08:49S 22°53' W 043°09'0 0.4
2017-Jun-02 08:25S 22°53' W 043°09'0 0.1
2017-Jun-02 07:55S 22°53' W 043°09'0 0.0
2017-Jun-02 07:25S 22°53' W 043°09'0 0.1
2017-Jun-02 06:55S 22°54' W 043°09'0 0.0
2017-Jun-02 06:25S 22°54' W 043°09'0 0.0
2017-Jun-02 05:55S 22°54' W 043°09'0 0.0
2017-Jun-02 05:25S 22°54' W 043°09'0 0.2
2017-Jun-02 04:55S 22°53' W 043°09'0 0.3
2017-Jun-02 04:25S 22°53' W 043°09'0 0.1
2017-Jun-02 03:43S 22°53' W 043°09'0 0.1
2017-Jun-02 03:25S 22°53' W 043°09'0 0.1
2017-Jun-02 02:55S 22°53' W 043°09'0 0.1
2017-Jun-02 01:49S 22°53' W 043°09'0 0.0
2017-Jun-02 01:01S 22°53' W 043°09'0 0.1
2017-Jun-02 00:43S 22°54' W 043°09'0 0.2
2017-Jun-02 00:19S 22°53' W 043°09'0 0.3
2017-Jun-01 23:49S 22°53' W 043°09'0 0.1
2017-Jun-01 23:25S 22°53' W 043°09'0 0.0
2017-Jun-01 22:01S 22°53' W 043°09'0 0.1
2017-Jun-01 21:49S 22°53' W 043°09'0 0.0
2017-Jun-01 21:13S 22°53' W 043°09'0 0.1
2017-Jun-01 20:55S 22°53' W 043°09'0 0.0
2017-Jun-01 20:19S 22°53' W 043°09'0 0.1
2017-Jun-01 19:55S 22°53' W 043°09'0 0.3
2017-Jun-01 19:23S 22°53' W 043°09'0 0.4
2017-Jun-01 19:00S 22°54' W 043°09'3 5.6
2017-Jun-01 18:30S 22°56' W 043°08'4 6.7
2017-Jun-01 17:57S 23°00' W 043°09'3 6.7
2017-Jun-01 17:30S 23°03' W 043°07'1 0.1
2017-Jun-01 13:39S 23°03' W 043°07'0 2.4
2017-Jun-01 13:30S 23°03' W 043°06'2 4.9
2017-Jun-01 13:00S 23°01' W 043°06'3 5.6
2017-Jun-01 12:30S 23°01' W 043°03'510.0
2017-Jun-01 12:00S 23°03' W 042°58'  
2017-May-29 14:56S 23°05' W 042°45'1213.2
2017-May-29 14:00S 23°04' W 042°58'612.1
2017-May-29 13:30S 23°03' W 043°04'611.4
2017-May-29 13:00S 22°58' W 043°08'5 9.4
2017-May-29 12:30S 22°53' W 043°09'0 0.0
2017-May-28 22:30S 22°53' W 043°09'0 0.0
2017-May-28 21:48S 22°53' W 043°09'0 0.1
2017-May-28 20:36S 22°53' W 043°09'0 0.1
2017-May-28 20:30S 22°53' W 043°09'0 0.0
2017-May-28 19:54S 22°53' W 043°09'0 0.0
2017-May-28 19:30S 22°53' W 043°09'0 0.0
2017-May-28 18:48S 22°53' W 043°09'0 0.0
2017-May-28 18:24S 22°53' W 043°09'0 0.0
2017-May-28 17:42S 22°53' W 043°09'0 0.0
2017-May-28 16:30S 22°53' W 043°09'0 0.0
2017-May-28 16:00S 22°53' W 043°09'0 0.0
2017-May-28 15:30S 22°53' W 043°09'0 0.4
2017-May-28 15:00S 22°53' W 043°09'0 0.2
2017-May-28 14:00S 22°54' W 043°09'0 0.0
2017-May-28 13:30S 22°54' W 043°09'0 0.1
2017-May-28 13:00S 22°53' W 043°09'0 0.1
2017-May-28 12:24S 22°54' W 043°09'0 0.2
2017-May-28 12:00S 22°53' W 043°09'3 5.3
2017-May-28 11:30S 22°56' W 043°08'5 9.9
2017-May-28 11:00S 23°01' W 043°07'4 7.5
2017-May-28 10:30S 23°05' W 043°07'  

Dump ship's entire track history